sensor_id;sensor_type;location;lat;lon;timestamp;P1;durP1;ratioP1;P2;durP2;ratioP2
45618;SDS011;31343;47.520;19.144;2022-12-05T00:01:18;21.55;;;12.68;;
45618;SDS011;31343;47.520;19.144;2022-12-05T00:03:45;25.40;;;13.45;;
45618;SDS011;31343;47.520;19.144;2022-12-05T00:06:14;25.13;;;12.82;;
45618;SDS011;31343;47.520;19.144;2022-12-05T00:08:40;25.80;;;15.27;;
45618;SDS011;31343;47.520;19.144;2022-12-05T00:11:13;19.77;;;12.15;;
45618;SDS011;31343;47.520;19.144;2022-12-05T00:13:39;19.73;;;12.52;;
45618;SDS011;31343;47.520;19.144;2022-12-05T00:16:10;19.88;;;11.90;;
45618;SDS011;31343;47.520;19.144;2022-12-05T00:18:38;22.73;;;11.88;;
45618;SDS011;31343;47.520;19.144;2022-12-05T00:21:04;21.27;;;12.73;;
45618;SDS011;31343;47.520;19.144;2022-12-05T00:23:31;18.10;;;11.32;;
45618;SDS011;31343;47.520;19.144;2022-12-05T00:25:56;19.35;;;10.93;;
45618;SDS011;31343;47.520;19.144;2022-12-05T00:28:26;17.60;;;11.45;;
45618;SDS011;31343;47.520;19.144;2022-12-05T00:30:52;17.00;;;9.32;;
45618;SDS011;31343;47.520;19.144;2022-12-05T00:33:17;16.38;;;11.00;;
45618;SDS011;31343;47.520;19.144;2022-12-05T00:35:43;20.77;;;10.55;;
45618;SDS011;31343;47.520;19.144;2022-12-05T00:38:09;20.48;;;10.98;;
45618;SDS011;31343;47.520;19.144;2022-12-05T00:40:35;17.48;;;9.57;;
45618;SDS011;31343;47.520;19.144;2022-12-05T00:43:01;16.13;;;9.25;;
45618;SDS011;31343;47.520;19.144;2022-12-05T00:45:26;18.15;;;9.13;;
45618;SDS011;31343;47.520;19.144;2022-12-05T00:47:52;15.20;;;8.98;;
45618;SDS011;31343;47.520;19.144;2022-12-05T00:50:18;16.90;;;9.48;;
45618;SDS011;31343;47.520;19.144;2022-12-05T00:52:43;18.67;;;8.85;;
45618;SDS011;31343;47.520;19.144;2022-12-05T00:55:09;16.00;;;7.78;;
45618;SDS011;31343;47.520;19.144;2022-12-05T00:57:35;11.93;;;6.90;;
45618;SDS011;31343;47.520;19.144;2022-12-05T01:00:00;12.25;;;7.00;;
45618;SDS011;31343;47.520;19.144;2022-12-05T01:02:27;12.13;;;7.68;;
45618;SDS011;31343;47.520;19.144;2022-12-05T01:04:54;10.70;;;5.60;;
45618;SDS011;31343;47.520;19.144;2022-12-05T01:07:20;9.80;;;5.95;;
45618;SDS011;31343;47.520;19.144;2022-12-05T01:09:45;10.05;;;5.60;;
45618;SDS011;31343;47.520;19.144;2022-12-05T01:12:11;9.82;;;5.03;;
45618;SDS011;31343;47.520;19.144;2022-12-05T01:14:37;9.75;;;5.43;;
45618;SDS011;31343;47.520;19.144;2022-12-05T01:17:03;12.60;;;5.50;;
45618;SDS011;31343;47.520;19.144;2022-12-05T01:19:29;13.07;;;5.88;;
45618;SDS011;31343;47.520;19.144;2022-12-05T01:21:56;9.15;;;5.50;;
45618;SDS011;31343;47.520;19.144;2022-12-05T01:24:22;10.70;;;5.65;;
45618;SDS011;31343;47.520;19.144;2022-12-05T01:26:49;9.50;;;6.07;;
45618;SDS011;31343;47.520;19.144;2022-12-05T01:29:16;11.55;;;5.78;;
45618;SDS011;31343;47.520;19.144;2022-12-05T01:31:43;14.48;;;7.03;;
45618;SDS011;31343;47.520;19.144;2022-12-05T01:34:10;11.13;;;6.13;;
45618;SDS011;31343;47.520;19.144;2022-12-05T01:36:38;9.13;;;6.10;;
45618;SDS011;31343;47.520;19.144;2022-12-05T01:39:05;10.88;;;5.60;;
45618;SDS011;31343;47.520;19.144;2022-12-05T01:41:33;13.43;;;6.22;;
45618;SDS011;31343;47.520;19.144;2022-12-05T01:44:05;11.02;;;5.95;;
45618;SDS011;31343;47.520;19.144;2022-12-05T01:46:51;10.68;;;5.93;;
45618;SDS011;31343;47.520;19.144;2022-12-05T01:51:47;10.07;;;5.53;;
45618;SDS011;31343;47.520;19.144;2022-12-05T01:54:16;12.10;;;6.22;;
45618;SDS011;31343;47.520;19.144;2022-12-05T01:56:45;8.32;;;5.65;;
45618;SDS011;31343;47.520;19.144;2022-12-05T01:59:14;12.65;;;6.20;;
45618;SDS011;31343;47.520;19.144;2022-12-05T02:01:42;9.60;;;5.55;;
45618;SDS011;31343;47.520;19.144;2022-12-05T02:04:08;12.82;;;7.47;;
45618;SDS011;31343;47.520;19.144;2022-12-05T02:06:35;10.82;;;6.78;;
45618;SDS011;31343;47.520;19.144;2022-12-05T02:09:01;14.15;;;6.68;;
45618;SDS011;31343;47.520;19.144;2022-12-05T02:11:27;12.30;;;6.85;;
45618;SDS011;31343;47.520;19.144;2022-12-05T02:25:16;11.32;;;6.43;;
45618;SDS011;31343;47.520;19.144;2022-12-05T02:30:37;9.77;;;6.00;;
45618;SDS011;31343;47.520;19.144;2022-12-05T02:38:38;10.30;;;5.70;;
45618;SDS011;31343;47.520;19.144;2022-12-05T02:43:53;10.90;;;5.93;;
45618;SDS011;31343;47.520;19.144;2022-12-05T02:46:22;10.13;;;5.63;;
45618;SDS011;31343;47.520;19.144;2022-12-05T02:48:50;11.23;;;5.25;;
45618;SDS011;31343;47.520;19.144;2022-12-05T02:51:27;11.45;;;6.00;;
45618;SDS011;31343;47.520;19.144;2022-12-05T02:53:58;9.60;;;4.80;;
45618;SDS011;31343;47.520;19.144;2022-12-05T02:56:28;9.45;;;5.30;;
45618;SDS011;31343;47.520;19.144;2022-12-05T02:58:58;10.77;;;5.22;;
45618;SDS011;31343;47.520;19.144;2022-12-05T03:01:25;10.77;;;5.88;;
45618;SDS011;31343;47.520;19.144;2022-12-05T03:03:55;9.77;;;5.00;;
45618;SDS011;31343;47.520;19.144;2022-12-05T03:06:36;9.48;;;4.95;;
45618;SDS011;31343;47.520;19.144;2022-12-05T03:09:19;11.38;;;5.35;;
45618;SDS011;31343;47.520;19.144;2022-12-05T03:11:52;8.40;;;4.65;;
45618;SDS011;31343;47.520;19.144;2022-12-05T03:14:28;10.48;;;5.57;;
45618;SDS011;31343;47.520;19.144;2022-12-05T03:17:05;9.98;;;4.85;;
45618;SDS011;31343;47.520;19.144;2022-12-05T03:19:45;9.63;;;4.93;;
45618;SDS011;31343;47.520;19.144;2022-12-05T03:25:22;9.15;;;5.20;;
45618;SDS011;31343;47.520;19.144;2022-12-05T03:28:18;9.50;;;5.57;;
45618;SDS011;31343;47.520;19.144;2022-12-05T03:30:53;10.77;;;4.70;;
45618;SDS011;31343;47.520;19.144;2022-12-05T03:33:22;9.55;;;5.40;;
45618;SDS011;31343;47.520;19.144;2022-12-05T03:38:30;8.20;;;4.97;;
45618;SDS011;31343;47.520;19.144;2022-12-05T03:46:40;9.68;;;5.43;;
45618;SDS011;31343;47.520;19.144;2022-12-05T03:49:15;10.43;;;4.88;;
45618;SDS011;31343;47.520;19.144;2022-12-05T03:51:48;11.15;;;6.10;;
45618;SDS011;31343;47.520;19.144;2022-12-05T03:56:51;9.15;;;4.75;;
45618;SDS011;31343;47.520;19.144;2022-12-05T04:04:51;10.90;;;5.05;;
45618;SDS011;31343;47.520;19.144;2022-12-05T04:07:21;10.77;;;5.45;;
45618;SDS011;31343;47.520;19.144;2022-12-05T04:09:54;11.90;;;5.40;;
45618;SDS011;31343;47.520;19.144;2022-12-05T04:12:26;10.10;;;6.18;;
45618;SDS011;31343;47.520;19.144;2022-12-05T04:14:55;9.32;;;6.30;;
45618;SDS011;31343;47.520;19.144;2022-12-05T04:20:10;13.40;;;6.55;;
45618;SDS011;31343;47.520;19.144;2022-12-05T04:22:58;9.07;;;5.03;;
45618;SDS011;31343;47.520;19.144;2022-12-05T04:25:25;12.32;;;7.35;;
45618;SDS011;31343;47.520;19.144;2022-12-05T04:30:39;10.50;;;6.47;;
45618;SDS011;31343;47.520;19.144;2022-12-05T04:33:58;10.25;;;6.18;;
45618;SDS011;31343;47.520;19.144;2022-12-05T04:36:00;11.93;;;7.22;;
45618;SDS011;31343;47.520;19.144;2022-12-05T04:38:54;15.57;;;6.47;;
45618;SDS011;31343;47.520;19.144;2022-12-05T04:44:16;13.02;;;6.55;;
45618;SDS011;31343;47.520;19.144;2022-12-05T04:46:46;11.15;;;5.55;;
45618;SDS011;31343;47.520;19.144;2022-12-05T04:49:15;10.48;;;6.15;;
45618;SDS011;31343;47.520;19.144;2022-12-05T04:51:45;11.30;;;6.45;;
45618;SDS011;31343;47.520;19.144;2022-12-05T04:54:24;12.27;;;6.40;;
45618;SDS011;31343;47.520;19.144;2022-12-05T04:56:52;12.77;;;7.03;;
45618;SDS011;31343;47.520;19.144;2022-12-05T04:59:23;11.40;;;6.90;;
45618;SDS011;31343;47.520;19.144;2022-12-05T05:01:50;13.30;;;6.65;;
45618;SDS011;31343;47.520;19.144;2022-12-05T05:04:26;11.25;;;6.68;;
45618;SDS011;31343;47.520;19.144;2022-12-05T05:07:03;12.50;;;6.43;;
45618;SDS011;31343;47.520;19.144;2022-12-05T05:09:34;10.93;;;6.55;;
45618;SDS011;31343;47.520;19.144;2022-12-05T05:11:59;14.13;;;7.60;;
45618;SDS011;31343;47.520;19.144;2022-12-05T05:14:25;12.63;;;6.35;;
45618;SDS011;31343;47.520;19.144;2022-12-05T05:16:52;13.20;;;7.70;;
45618;SDS011;31343;47.520;19.144;2022-12-05T05:19:18;12.45;;;7.97;;
45618;SDS011;31343;47.520;19.144;2022-12-05T05:21:43;14.10;;;7.65;;
45618;SDS011;31343;47.520;19.144;2022-12-05T05:24:10;13.52;;;7.20;;
45618;SDS011;31343;47.520;19.144;2022-12-05T05:26:37;12.75;;;6.53;;
45618;SDS011;31343;47.520;19.144;2022-12-05T05:29:04;14.98;;;7.57;;
45618;SDS011;31343;47.520;19.144;2022-12-05T05:31:30;11.95;;;6.72;;
45618;SDS011;31343;47.520;19.144;2022-12-05T05:33:56;13.27;;;8.05;;
45618;SDS011;31343;47.520;19.144;2022-12-05T05:36:24;14.05;;;7.55;;
45618;SDS011;31343;47.520;19.144;2022-12-05T05:38:52;14.95;;;9.07;;
45618;SDS011;31343;47.520;19.144;2022-12-05T05:41:23;15.30;;;7.95;;
45618;SDS011;31343;47.520;19.144;2022-12-05T05:43:56;14.27;;;8.10;;
45618;SDS011;31343;47.520;19.144;2022-12-05T05:46:24;14.80;;;8.27;;
45618;SDS011;31343;47.520;19.144;2022-12-05T05:48:52;12.35;;;7.85;;
45618;SDS011;31343;47.520;19.144;2022-12-05T05:51:18;16.45;;;8.98;;
45618;SDS011;31343;47.520;19.144;2022-12-05T05:53:45;16.33;;;8.75;;
45618;SDS011;31343;47.520;19.144;2022-12-05T05:56:15;14.55;;;7.47;;
45618;SDS011;31343;47.520;19.144;2022-12-05T05:58:43;16.77;;;8.82;;
45618;SDS011;31343;47.520;19.144;2022-12-05T06:01:10;16.48;;;9.68;;
45618;SDS011;31343;47.520;19.144;2022-12-05T06:03:37;15.80;;;8.98;;
45618;SDS011;31343;47.520;19.144;2022-12-05T06:06:04;13.93;;;8.10;;
45618;SDS011;31343;47.520;19.144;2022-12-05T06:08:32;13.75;;;8.00;;
45618;SDS011;31343;47.520;19.144;2022-12-05T06:10:59;15.68;;;8.45;;
45618;SDS011;31343;47.520;19.144;2022-12-05T06:13:29;15.57;;;8.40;;
45618;SDS011;31343;47.520;19.144;2022-12-05T06:15:54;13.45;;;8.60;;
45618;SDS011;31343;47.520;19.144;2022-12-05T06:18:20;15.73;;;8.98;;
45618;SDS011;31343;47.520;19.144;2022-12-05T06:20:52;16.33;;;9.43;;
45618;SDS011;31343;47.520;19.144;2022-12-05T06:23:22;17.38;;;10.02;;
45618;SDS011;31343;47.520;19.144;2022-12-05T06:25:49;17.17;;;9.27;;
45618;SDS011;31343;47.520;19.144;2022-12-05T06:28:17;14.63;;;8.73;;
45618;SDS011;31343;47.520;19.144;2022-12-05T06:30:44;14.60;;;8.85;;
45618;SDS011;31343;47.520;19.144;2022-12-05T06:33:10;16.67;;;9.52;;
45618;SDS011;31343;47.520;19.144;2022-12-05T06:35:36;16.10;;;8.93;;
45618;SDS011;31343;47.520;19.144;2022-12-05T06:38:02;18.67;;;8.90;;
45618;SDS011;31343;47.520;19.144;2022-12-05T06:40:28;14.95;;;8.93;;
45618;SDS011;31343;47.520;19.144;2022-12-05T06:42:54;17.92;;;10.25;;
45618;SDS011;31343;47.520;19.144;2022-12-05T06:45:20;17.05;;;9.75;;
45618;SDS011;31343;47.520;19.144;2022-12-05T06:47:45;15.95;;;9.02;;
45618;SDS011;31343;47.520;19.144;2022-12-05T06:50:11;14.77;;;7.50;;
45618;SDS011;31343;47.520;19.144;2022-12-05T06:52:37;12.50;;;7.50;;
45618;SDS011;31343;47.520;19.144;2022-12-05T06:55:03;14.18;;;9.23;;
45618;SDS011;31343;47.520;19.144;2022-12-05T06:57:29;14.82;;;9.52;;
45618;SDS011;31343;47.520;19.144;2022-12-05T06:59:55;16.70;;;9.30;;
45618;SDS011;31343;47.520;19.144;2022-12-05T07:02:41;14.77;;;7.88;;
45618;SDS011;31343;47.520;19.144;2022-12-05T07:05:07;15.68;;;9.50;;
45618;SDS011;31343;47.520;19.144;2022-12-05T07:07:35;16.13;;;9.75;;
45618;SDS011;31343;47.520;19.144;2022-12-05T07:10:01;17.27;;;8.63;;
45618;SDS011;31343;47.520;19.144;2022-12-05T07:12:28;16.25;;;9.43;;
45618;SDS011;31343;47.520;19.144;2022-12-05T07:14:53;15.93;;;9.02;;
45618;SDS011;31343;47.520;19.144;2022-12-05T07:17:20;14.85;;;8.00;;
45618;SDS011;31343;47.520;19.144;2022-12-05T07:19:46;14.43;;;8.00;;
45618;SDS011;31343;47.520;19.144;2022-12-05T07:22:13;14.63;;;8.00;;
45618;SDS011;31343;47.520;19.144;2022-12-05T07:24:39;14.60;;;9.10;;
45618;SDS011;31343;47.520;19.144;2022-12-05T07:27:05;17.33;;;9.40;;
45618;SDS011;31343;47.520;19.144;2022-12-05T07:29:31;15.65;;;8.38;;
45618;SDS011;31343;47.520;19.144;2022-12-05T07:31:57;14.45;;;8.48;;
45618;SDS011;31343;47.520;19.144;2022-12-05T07:34:23;13.50;;;7.75;;
45618;SDS011;31343;47.520;19.144;2022-12-05T07:36:48;13.45;;;8.05;;
45618;SDS011;31343;47.520;19.144;2022-12-05T07:39:14;14.40;;;7.63;;
45618;SDS011;31343;47.520;19.144;2022-12-05T07:41:40;13.85;;;8.68;;
45618;SDS011;31343;47.520;19.144;2022-12-05T07:44:06;15.98;;;8.93;;
45618;SDS011;31343;47.520;19.144;2022-12-05T07:46:34;12.32;;;6.93;;
45618;SDS011;31343;47.520;19.144;2022-12-05T07:49:00;13.90;;;7.82;;
45618;SDS011;31343;47.520;19.144;2022-12-05T07:51:25;12.55;;;6.63;;
45618;SDS011;31343;47.520;19.144;2022-12-05T07:53:51;12.45;;;8.25;;
45618;SDS011;31343;47.520;19.144;2022-12-05T07:56:17;12.52;;;7.38;;
45618;SDS011;31343;47.520;19.144;2022-12-05T07:58:45;12.52;;;7.35;;
45618;SDS011;31343;47.520;19.144;2022-12-05T08:01:13;11.85;;;7.03;;
45618;SDS011;31343;47.520;19.144;2022-12-05T08:03:48;11.68;;;6.70;;
45618;SDS011;31343;47.520;19.144;2022-12-05T08:06:16;14.40;;;7.40;;
45618;SDS011;31343;47.520;19.144;2022-12-05T08:08:44;9.65;;;6.68;;
45618;SDS011;31343;47.520;19.144;2022-12-05T08:11:14;11.82;;;6.90;;
45618;SDS011;31343;47.520;19.144;2022-12-05T08:13:43;13.82;;;7.55;;
45618;SDS011;31343;47.520;19.144;2022-12-05T08:16:10;11.73;;;7.10;;
45618;SDS011;31343;47.520;19.144;2022-12-05T08:18:38;12.35;;;7.63;;
45618;SDS011;31343;47.520;19.144;2022-12-05T08:21:08;11.35;;;7.10;;
45618;SDS011;31343;47.520;19.144;2022-12-05T08:23:39;12.63;;;7.82;;
45618;SDS011;31343;47.520;19.144;2022-12-05T08:26:06;13.38;;;7.35;;
45618;SDS011;31343;47.520;19.144;2022-12-05T08:28:41;12.20;;;6.85;;
45618;SDS011;31343;47.520;19.144;2022-12-05T08:31:14;11.65;;;8.02;;
45618;SDS011;31343;47.520;19.144;2022-12-05T08:33:41;12.85;;;7.90;;
45618;SDS011;31343;47.520;19.144;2022-12-05T08:36:09;14.48;;;7.18;;
45618;SDS011;31343;47.520;19.144;2022-12-05T08:38:37;13.60;;;7.90;;
45618;SDS011;31343;47.520;19.144;2022-12-05T08:41:04;12.15;;;7.72;;
45618;SDS011;31343;47.520;19.144;2022-12-05T08:43:32;12.82;;;7.63;;
45618;SDS011;31343;47.520;19.144;2022-12-05T08:45:59;15.00;;;8.10;;
45618;SDS011;31343;47.520;19.144;2022-12-05T08:48:25;12.05;;;7.93;;
45618;SDS011;31343;47.520;19.144;2022-12-05T08:50:52;13.45;;;7.70;;
45618;SDS011;31343;47.520;19.144;2022-12-05T08:53:18;15.38;;;10.23;;
45618;SDS011;31343;47.520;19.144;2022-12-05T08:55:45;9.43;;;6.90;;
45618;SDS011;31343;47.520;19.144;2022-12-05T08:58:12;13.15;;;7.60;;
45618;SDS011;31343;47.520;19.144;2022-12-05T09:00:39;13.43;;;7.53;;
45618;SDS011;31343;47.520;19.144;2022-12-05T09:03:05;11.98;;;8.13;;
45618;SDS011;31343;47.520;19.144;2022-12-05T09:05:31;12.32;;;7.57;;
45618;SDS011;31343;47.520;19.144;2022-12-05T09:07:58;10.55;;;7.72;;
45618;SDS011;31343;47.520;19.144;2022-12-05T09:10:24;11.75;;;7.72;;
45618;SDS011;31343;47.520;19.144;2022-12-05T09:12:51;15.23;;;8.95;;
45618;SDS011;31343;47.520;19.144;2022-12-05T09:15:17;14.20;;;7.95;;
45618;SDS011;31343;47.520;19.144;2022-12-05T09:17:43;12.52;;;8.63;;
45618;SDS011;31343;47.520;19.144;2022-12-05T09:20:09;14.98;;;8.20;;
45618;SDS011;31343;47.520;19.144;2022-12-05T09:22:38;12.23;;;7.95;;
45618;SDS011;31343;47.520;19.144;2022-12-05T09:25:05;14.13;;;7.60;;
45618;SDS011;31343;47.520;19.144;2022-12-05T09:27:31;12.13;;;8.35;;
45618;SDS011;31343;47.520;19.144;2022-12-05T09:29:57;13.30;;;8.90;;
45618;SDS011;31343;47.520;19.144;2022-12-05T09:32:22;13.45;;;7.68;;
45618;SDS011;31343;47.520;19.144;2022-12-05T09:34:48;12.15;;;7.82;;
45618;SDS011;31343;47.520;19.144;2022-12-05T09:37:15;10.63;;;7.15;;
45618;SDS011;31343;47.520;19.144;2022-12-05T09:39:45;12.75;;;8.20;;
45618;SDS011;31343;47.520;19.144;2022-12-05T09:45:17;11.98;;;7.60;;
45618;SDS011;31343;47.520;19.144;2022-12-05T09:48:04;11.25;;;7.18;;
45618;SDS011;31343;47.520;19.144;2022-12-05T09:50:41;14.00;;;7.97;;
45618;SDS011;31343;47.520;19.144;2022-12-05T09:56:03;13.15;;;8.93;;
45618;SDS011;31343;47.520;19.144;2022-12-05T09:58:50;12.07;;;8.60;;
45618;SDS011;31343;47.520;19.144;2022-12-05T10:01:25;14.23;;;8.75;;
45618;SDS011;31343;47.520;19.144;2022-12-05T10:04:02;15.20;;;9.32;;
45618;SDS011;31343;47.520;19.144;2022-12-05T10:12:36;11.17;;;7.90;;
45618;SDS011;31343;47.520;19.144;2022-12-05T10:18:26;12.52;;;8.07;;
45618;SDS011;31343;47.520;19.144;2022-12-05T10:20:44;14.75;;;8.93;;
45618;SDS011;31343;47.520;19.144;2022-12-05T10:23:19;13.85;;;9.13;;
45618;SDS011;31343;47.520;19.144;2022-12-05T10:25:50;12.10;;;7.78;;
45618;SDS011;31343;47.520;19.144;2022-12-05T10:31:21;12.30;;;8.48;;
45618;SDS011;31343;47.520;19.144;2022-12-05T10:34:02;13.18;;;9.38;;
45618;SDS011;31343;47.520;19.144;2022-12-05T10:36:33;14.70;;;8.65;;
45618;SDS011;31343;47.520;19.144;2022-12-05T10:38:59;11.90;;;8.00;;
45618;SDS011;31343;47.520;19.144;2022-12-05T10:41:25;13.75;;;8.63;;
45618;SDS011;31343;47.520;19.144;2022-12-05T10:43:52;15.07;;;10.05;;
45618;SDS011;31343;47.520;19.144;2022-12-05T10:46:21;12.38;;;8.40;;
45618;SDS011;31343;47.520;19.144;2022-12-05T10:48:47;13.40;;;8.98;;
45618;SDS011;31343;47.520;19.144;2022-12-05T10:51:22;12.35;;;9.25;;
45618;SDS011;31343;47.520;19.144;2022-12-05T10:53:52;9.98;;;7.85;;
45618;SDS011;31343;47.520;19.144;2022-12-05T10:59:03;11.23;;;7.97;;
45618;SDS011;31343;47.520;19.144;2022-12-05T11:01:30;10.68;;;7.93;;
45618;SDS011;31343;47.520;19.144;2022-12-05T11:03:58;12.07;;;8.98;;
45618;SDS011;31343;47.520;19.144;2022-12-05T11:06:31;14.18;;;8.95;;
45618;SDS011;31343;47.520;19.144;2022-12-05T11:11:29;13.40;;;8.90;;
45618;SDS011;31343;47.520;19.144;2022-12-05T11:14:01;15.02;;;10.13;;
45618;SDS011;31343;47.520;19.144;2022-12-05T11:16:33;17.40;;;10.20;;
45618;SDS011;31343;47.520;19.144;2022-12-05T11:19:23;13.63;;;8.55;;
45618;SDS011;31343;47.520;19.144;2022-12-05T11:22:00;12.95;;;8.88;;
45618;SDS011;31343;47.520;19.144;2022-12-05T11:24:32;12.82;;;9.00;;
45618;SDS011;31343;47.520;19.144;2022-12-05T11:27:00;12.10;;;8.75;;
45618;SDS011;31343;47.520;19.144;2022-12-05T11:29:52;13.93;;;9.75;;
45618;SDS011;31343;47.520;19.144;2022-12-05T11:32:20;14.90;;;9.70;;
45618;SDS011;31343;47.520;19.144;2022-12-05T11:34:49;15.10;;;10.18;;
45618;SDS011;31343;47.520;19.144;2022-12-05T11:38:09;15.90;;;10.65;;
45618;SDS011;31343;47.520;19.144;2022-12-05T11:51:21;15.88;;;11.32;;
45618;SDS011;31343;47.520;19.144;2022-12-05T12:02:49;18.65;;;11.48;;
45618;SDS011;31343;47.520;19.144;2022-12-05T12:05:23;20.90;;;13.07;;
45618;SDS011;31343;47.520;19.144;2022-12-05T12:08:22;20.98;;;13.07;;
45618;SDS011;31343;47.520;19.144;2022-12-05T12:14:09;24.98;;;14.00;;
45618;SDS011;31343;47.520;19.144;2022-12-05T12:16:49;22.75;;;14.32;;
45618;SDS011;31343;47.520;19.144;2022-12-05T12:25:22;22.73;;;14.02;;
45618;SDS011;31343;47.520;19.144;2022-12-05T12:33:14;20.48;;;13.05;;
45618;SDS011;31343;47.520;19.144;2022-12-05T12:36:05;17.15;;;11.60;;
45618;SDS011;31343;47.520;19.144;2022-12-05T12:41:46;18.55;;;11.55;;
45618;SDS011;31343;47.520;19.144;2022-12-05T12:47:03;14.38;;;9.57;;
45618;SDS011;31343;47.520;19.144;2022-12-05T12:49:52;14.15;;;9.27;;
45618;SDS011;31343;47.520;19.144;2022-12-05T12:52:37;16.55;;;9.90;;
45618;SDS011;31343;47.520;19.144;2022-12-05T13:06:12;15.53;;;10.73;;
45618;SDS011;31343;47.520;19.144;2022-12-05T13:11:13;14.95;;;10.65;;
45618;SDS011;31343;47.520;19.144;2022-12-05T13:13:45;15.68;;;10.90;;
45618;SDS011;31343;47.520;19.144;2022-12-05T13:16:50;15.13;;;11.10;;
45618;SDS011;31343;47.520;19.144;2022-12-05T13:22:05;16.42;;;10.85;;
45618;SDS011;31343;47.520;19.144;2022-12-05T13:24:32;16.63;;;11.88;;
45618;SDS011;31343;47.520;19.144;2022-12-05T13:27:00;18.15;;;11.52;;
45618;SDS011;31343;47.520;19.144;2022-12-05T13:29:35;19.45;;;12.32;;
45618;SDS011;31343;47.520;19.144;2022-12-05T13:32:06;15.18;;;10.80;;
45618;SDS011;31343;47.520;19.144;2022-12-05T13:34:54;14.73;;;10.95;;
45618;SDS011;31343;47.520;19.144;2022-12-05T13:37:25;16.65;;;10.73;;
45618;SDS011;31343;47.520;19.144;2022-12-05T13:43:10;16.00;;;10.40;;
45618;SDS011;31343;47.520;19.144;2022-12-05T13:45:38;17.60;;;12.05;;
45618;SDS011;31343;47.520;19.144;2022-12-05T13:48:10;15.70;;;10.73;;
45618;SDS011;31343;47.520;19.144;2022-12-05T13:53:24;15.80;;;10.90;;
45618;SDS011;31343;47.520;19.144;2022-12-05T14:00:50;16.65;;;11.10;;
45618;SDS011;31343;47.520;19.144;2022-12-05T14:06:11;19.30;;;11.90;;
45618;SDS011;31343;47.520;19.144;2022-12-05T14:09:03;15.65;;;10.50;;
45618;SDS011;31343;47.520;19.144;2022-12-05T14:17:19;19.20;;;13.43;;
45618;SDS011;31343;47.520;19.144;2022-12-05T14:22:35;15.52;;;10.63;;
45618;SDS011;31343;47.520;19.144;2022-12-05T14:33:42;20.20;;;11.50;;
45618;SDS011;31343;47.520;19.144;2022-12-05T14:36:13;17.55;;;11.93;;
45618;SDS011;31343;47.520;19.144;2022-12-05T14:38:43;15.43;;;10.45;;
45618;SDS011;31343;47.520;19.144;2022-12-05T14:41:10;16.58;;;10.32;;
45618;SDS011;31343;47.520;19.144;2022-12-05T14:43:41;15.15;;;10.25;;
45618;SDS011;31343;47.520;19.144;2022-12-05T14:46:13;14.82;;;9.50;;
45618;SDS011;31343;47.520;19.144;2022-12-05T14:48:45;16.13;;;9.88;;
45618;SDS011;31343;47.520;19.144;2022-12-05T14:54:02;17.23;;;10.02;;
45618;SDS011;31343;47.520;19.144;2022-12-05T14:56:31;16.02;;;10.30;;
45618;SDS011;31343;47.520;19.144;2022-12-05T14:59:04;15.88;;;10.77;;
45618;SDS011;31343;47.520;19.144;2022-12-05T15:01:56;14.27;;;10.05;;
45618;SDS011;31343;47.520;19.144;2022-12-05T15:04:45;17.60;;;11.18;;
45618;SDS011;31343;47.520;19.144;2022-12-05T15:07:17;14.27;;;10.18;;
45618;SDS011;31343;47.520;19.144;2022-12-05T15:15:05;17.83;;;10.75;;
45618;SDS011;31343;47.520;19.144;2022-12-05T15:17:45;18.52;;;11.20;;
45618;SDS011;31343;47.520;19.144;2022-12-05T15:20:23;15.30;;;10.48;;
45618;SDS011;31343;47.520;19.144;2022-12-05T15:29:10;15.15;;;10.77;;
45618;SDS011;31343;47.520;19.144;2022-12-05T15:31:50;22.98;;;13.82;;
45618;SDS011;31343;47.520;19.144;2022-12-05T15:42:27;14.48;;;10.77;;
45618;SDS011;31343;47.520;19.144;2022-12-05T15:48:11;20.45;;;12.85;;
45618;SDS011;31343;47.520;19.144;2022-12-05T15:50:37;23.35;;;14.32;;
45618;SDS011;31343;47.520;19.144;2022-12-05T15:58:26;20.50;;;12.07;;
45618;SDS011;31343;47.520;19.144;2022-12-05T16:01:02;16.77;;;10.98;;
45618;SDS011;31343;47.520;19.144;2022-12-05T16:03:51;19.58;;;11.90;;
45618;SDS011;31343;47.520;19.144;2022-12-05T16:06:41;14.35;;;11.38;;
45618;SDS011;31343;47.520;19.144;2022-12-05T16:09:19;15.93;;;10.32;;
45618;SDS011;31343;47.520;19.144;2022-12-05T16:11:50;14.55;;;9.80;;
45618;SDS011;31343;47.520;19.144;2022-12-05T16:14:31;16.73;;;10.73;;
45618;SDS011;31343;47.520;19.144;2022-12-05T16:17:01;17.20;;;9.93;;
45618;SDS011;31343;47.520;19.144;2022-12-05T16:19:28;19.98;;;12.10;;
45618;SDS011;31343;47.520;19.144;2022-12-05T16:22:01;15.90;;;9.07;;
45618;SDS011;31343;47.520;19.144;2022-12-05T16:24:44;14.95;;;10.27;;
45618;SDS011;31343;47.520;19.144;2022-12-05T16:27:32;15.68;;;9.68;;
45618;SDS011;31343;47.520;19.144;2022-12-05T16:33:02;17.83;;;9.45;;
45618;SDS011;31343;47.520;19.144;2022-12-05T16:35:32;17.20;;;8.98;;
45618;SDS011;31343;47.520;19.144;2022-12-05T16:40:51;15.57;;;8.90;;
45618;SDS011;31343;47.520;19.144;2022-12-05T16:45:53;14.15;;;8.43;;
45618;SDS011;31343;47.520;19.144;2022-12-05T16:48:22;14.05;;;9.25;;
45618;SDS011;31343;47.520;19.144;2022-12-05T16:50:50;11.77;;;7.07;;
45618;SDS011;31343;47.520;19.144;2022-12-05T16:53:21;12.85;;;8.55;;
45618;SDS011;31343;47.520;19.144;2022-12-05T16:55:53;15.23;;;9.40;;
45618;SDS011;31343;47.520;19.144;2022-12-05T16:58:20;15.40;;;8.73;;
45618;SDS011;31343;47.520;19.144;2022-12-05T17:00:49;15.38;;;9.02;;
45618;SDS011;31343;47.520;19.144;2022-12-05T17:03:16;16.17;;;9.02;;
45618;SDS011;31343;47.520;19.144;2022-12-05T17:05:42;15.50;;;9.82;;
45618;SDS011;31343;47.520;19.144;2022-12-05T17:08:08;16.35;;;8.90;;
45618;SDS011;31343;47.520;19.144;2022-12-05T17:10:33;15.45;;;8.30;;
45618;SDS011;31343;47.520;19.144;2022-12-05T17:12:59;14.85;;;9.02;;
45618;SDS011;31343;47.520;19.144;2022-12-05T17:15:26;11.13;;;7.40;;
45618;SDS011;31343;47.520;19.144;2022-12-05T17:17:53;15.15;;;8.25;;
45618;SDS011;31343;47.520;19.144;2022-12-05T17:20:19;12.93;;;7.93;;
45618;SDS011;31343;47.520;19.144;2022-12-05T17:22:44;15.02;;;8.50;;
45618;SDS011;31343;47.520;19.144;2022-12-05T17:25:14;14.32;;;8.35;;
45618;SDS011;31343;47.520;19.144;2022-12-05T17:27:51;12.98;;;8.73;;
45618;SDS011;31343;47.520;19.144;2022-12-05T17:30:16;11.27;;;7.13;;
45618;SDS011;31343;47.520;19.144;2022-12-05T17:32:42;16.88;;;8.85;;
45618;SDS011;31343;47.520;19.144;2022-12-05T17:35:11;15.07;;;8.98;;
45618;SDS011;31343;47.520;19.144;2022-12-05T17:37:42;14.85;;;9.00;;
45618;SDS011;31343;47.520;19.144;2022-12-05T17:40:07;15.95;;;10.20;;
45618;SDS011;31343;47.520;19.144;2022-12-05T17:42:34;15.48;;;9.88;;
45618;SDS011;31343;47.520;19.144;2022-12-05T17:44:59;12.63;;;7.95;;
45618;SDS011;31343;47.520;19.144;2022-12-05T17:47:25;15.63;;;9.80;;
45618;SDS011;31343;47.520;19.144;2022-12-05T17:49:52;11.32;;;7.32;;
45618;SDS011;31343;47.520;19.144;2022-12-05T17:52:17;11.32;;;7.70;;
45618;SDS011;31343;47.520;19.144;2022-12-05T17:54:43;13.00;;;7.32;;
45618;SDS011;31343;47.520;19.144;2022-12-05T17:57:09;14.77;;;8.38;;
45618;SDS011;31343;47.520;19.144;2022-12-05T17:59:34;14.18;;;8.35;;